Time;durP1;ratioP1;P1;durP2;ratioP2;P2;SDS_P1;SDS_P2;PMS_P1;PMS_P2;Temp;Humidity;BMP_temperature;BMP_pressure;BME280_temperature;BME280_humidity;BME280_pressure;Samples;Min_cycle;Max_cycle;Signal;HPM_P1;HPM_P2
2022/12/25 03:11:47;;;;;;;34.20;17.70;;;;;;;3.01;96.44;100258.21;99911;1293;108723;-72
2022/12/25 03:17:08;;;;;;;41.10;18.70;;;;;;;3.03;96.48;100263.71;99390;1298;138219;-72
2022/12/25 03:27:59;;;;;;;37.10;18.80;;;;;;;3.05;97.04;100266.29;99470;1302;138662;-73
2022/12/25 03:33:25;;;;;;;45.90;20.50;;;;;;;2.98;97.17;100262.01;99408;1288;138785;-73
2022/12/25 03:36:16;;;;;;;43.80;20.20;;;;;;;2.94;97.25;100262.36;99564;1296;97834;-73
2022/12/25 04:37:38;;;;;;;44.70;20.70;;;;;;;3.21;98.25;100292.03;98583;1308;98009;-73
2022/12/25 04:40:06;;;;;;;43.10;20.30;;;;;;;3.23;98.08;100296.32;98464;1298;139315;-73
2022/12/25 04:42:33;;;;;;;46.30;21.20;;;;;;;3.24;97.94;100298.07;98469;1307;107756;-73
2022/12/25 04:45:00;;;;;;;44.90;20.60;;;;;;;3.24;97.96;100298.58;98631;1315;98471;-73
2022/12/25 04:47:27;;;;;;;42.30;19.30;;;;;;;3.27;97.92;100302.52;98473;1314;108142;-73
2022/12/25 04:49:54;;;;;;;45.80;20.30;;;;;;;3.29;98.22;100302.17;98610;1302;97873;-73
2022/12/25 04:52:21;;;;;;;52.20;21.90;;;;;;;3.31;98.13;100299.08;98379;1314;138131;-73
2022/12/25 04:54:48;;;;;;;45.00;20.40;;;;;;;3.33;97.84;100301.46;98365;1315;107798;-73
2022/12/25 04:57:16;;;;;;;50.10;22.00;;;;;;;3.33;98.04;100302.15;98317;1309;139234;-73
2022/12/25 04:59:43;;;;;;;45.30;20.30;;;;;;;3.36;97.88;100302.32;98440;1315;107500;-73
2022/12/25 05:02:10;;;;;;;45.40;21.20;;;;;;;3.36;97.93;100297.51;98843;1302;97946;-72
2022/12/25 05:04:38;;;;;;;46.90;20.90;;;;;;;3.39;97.95;100298.88;99067;1297;138135;-73
2022/12/25 05:07:05;;;;;;;45.50;21.00;;;;;;;3.40;97.85;100296.64;99389;1310;107334;-73
2022/12/25 05:09:32;;;;;;;41.70;20.20;;;;;;;3.42;97.93;100303.70;99507;1294;139629;-73
2022/12/25 05:11:59;;;;;;;46.60;19.90;;;;;;;3.44;97.92;100305.07;99731;1293;109083;-72
2022/12/25 05:14:26;;;;;;;45.30;21.60;;;;;;;3.45;97.69;100303.17;99731;1293;97822;-73
2022/12/25 05:16:53;;;;;;;44.50;20.60;;;;;;;3.48;97.76;100301.10;99690;1300;138094;-73
2022/12/25 05:19:20;;;;;;;46.90;21.00;;;;;;;3.51;97.77;100307.80;99729;1297;106829;-73
2022/12/25 05:21:47;;;;;;;52.30;22.60;;;;;;;3.53;97.94;100303.14;99582;1300;138629;-73
2022/12/25 05:24:14;;;;;;;48.40;22.30;;;;;;;3.56;97.74;100307.25;99794;1297;107885;-73
2022/12/25 05:26:41;;;;;;;47.50;22.10;;;;;;;3.59;97.73;100306.57;99857;1299;99283;-73
2022/12/25 05:29:08;;;;;;;46.90;22.40;;;;;;;3.61;97.50;100309.32;99763;1293;138095;-73
2022/12/25 05:31:35;;;;;;;47.80;22.50;;;;;;;3.64;97.72;100314.46;99778;1299;106626;-73
2022/12/25 05:34:02;;;;;;;51.40;23.40;;;;;;;3.67;97.81;100317.38;99707;1293;138806;-73
2022/12/25 05:36:29;;;;;;;48.90;22.20;;;;;;;3.69;97.53;100321.16;99860;1292;107404;-74
2022/12/25 05:38:56;;;;;;;53.30;23.20;;;;;;;3.71;97.54;100324.23;99789;1296;97825;-74
2022/12/25 05:41:23;;;;;;;47.40;22.80;;;;;;;3.71;97.44;100327.67;99734;1293;137987;-74
2022/12/25 05:43:58;;;;;;;49.00;21.30;;;;;;;3.71;97.46;100333.52;99804;1287;107564;-74
2022/12/25 05:46:25;;;;;;;51.90;21.70;;;;;;;3.71;97.52;100337.30;99750;1293;139256;-73
2022/12/25 05:48:52;;;;;;;51.60;22.20;;;;;;;3.72;97.39;100337.82;99855;1291;106635;-73
2022/12/25 05:51:19;;;;;;;54.10;23.50;;;;;;;3.77;97.66;100342.45;99687;1308;138946;-74
2022/12/25 05:53:46;;;;;;;51.50;22.30;;;;;;;3.83;98.25;100344.85;99846;1294;110375;-73
2022/12/25 05:56:14;;;;;;;48.90;22.00;;;;;;;3.92;98.07;100344.11;99755;1294;107236;-74
2022/12/25 05:58:41;;;;;;;48.60;22.30;;;;;;;3.98;97.89;100341.36;99861;1291;138232;-74
2022/12/25 06:01:18;;;;;;;49.30;23.30;;;;;;;4.01;97.69;100345.64;99850;1293;107724;-74
2022/12/25 06:03:43;;;;;;;;;;;;;;;4.07;97.51;100339.77;99703;1294;138472;-73
2022/12/25 06:06:12;;;;;;;46.30;19.60;;;;;;;4.09;97.47;100345.42;99826;1286;111491;-74
2022/12/25 06:08:39;;;;;;;44.50;19.40;;;;;;;4.14;97.44;100350.06;99792;1298;107833;-73
2022/12/25 06:11:08;;;;;;;43.20;20.10;;;;;;;4.19;97.40;100355.20;99726;1290;138940;-73
2022/12/25 06:13:36;;;;;;;40.30;19.90;;;;;;;4.27;97.44;100365.31;100014;1293;107383;-73
2022/12/25 06:16:05;;;;;;;41.20;19.70;;;;;;;4.32;97.50;100368.05;101114;1299;140873;-73
2022/12/25 06:18:34;;;;;;;38.60;19.90;;;;;;;4.37;97.15;100368.20;99930;1294;111464;-72
2022/12/25 06:21:01;;;;;;;39.90;19.10;;;;;;;4.43;97.31;100373.15;99838;1292;106987;-72
2022/12/25 06:23:28;;;;;;;36.10;18.80;;;;;;;4.49;97.16;100380.36;99865;1289;98121;-72
2022/12/25 06:25:55;;;;;;;41.20;19.30;;;;;;;4.55;96.90;100384.12;99832;1283;107417;-72
2022/12/25 06:28:22;;;;;;;44.40;20.70;;;;;;;4.61;96.73;100394.59;99647;1293;138417;-74
2022/12/25 06:30:49;;;;;;;41.20;19.30;;;;;;;4.65;96.65;100394.20;99857;1286;110882;-74
2022/12/25 06:33:16;;;;;;;41.20;20.00;;;;;;;4.69;96.24;100398.00;99662;1295;139100;-72
2022/12/25 06:35:44;;;;;;;48.40;21.40;;;;;;;4.69;96.00;100403.16;99740;1293;97813;-72
2022/12/25 06:38:11;;;;;;;45.40;21.00;;;;;;;4.71;95.64;100407.80;99645;1293;107458;-72
2022/12/25 06:40:38;;;;;;;52.50;23.60;;;;;;;4.72;95.65;100410.72;99589;1286;138048;-73
2022/12/25 06:43:05;;;;;;;59.40;25.90;;;;;;;4.72;95.60;100413.48;100946;1299;111766;-72
2022/12/25 06:45:34;;;;;;;55.40;25.10;;;;;;;4.73;95.42;100423.11;101125;1294;138554;-73
2022/12/25 06:48:01;;;;;;;61.10;25.40;;;;;;;4.73;95.45;100424.67;101306;1292;96164;-73
2022/12/25 06:50:28;;;;;;;58.10;24.80;;;;;;;4.71;95.45;100428.13;101351;1299;107367;-73
2022/12/25 06:52:55;;;;;;;57.80;24.40;;;;;;;4.71;95.26;100426.05;101200;1291;138519;-73
2022/12/25 06:55:22;;;;;;;63.60;24.80;;;;;;;4.71;95.31;100432.61;101367;1294;111357;-73
2022/12/25 06:57:49;;;;;;;60.20;26.90;;;;;;;4.69;95.29;100437.96;101239;1293;138411;-72
2022/12/25 07:00:17;;;;;;;59.40;26.20;;;;;;;4.66;95.21;100448.96;101339;1294;95785;-72
2022/12/25 07:02:48;;;;;;;61.90;26.50;;;;;;;4.64;94.93;100452.25;100487;1293;108878;-72
2022/12/25 07:05:16;;;;;;;62.60;27.10;;;;;;;4.61;94.93;100454.68;99718;1293;138451;-72
2022/12/25 07:07:43;;;;;;;63.10;27.20;;;;;;;4.59;94.98;100459.17;99821;1290;111618;-73
2022/12/25 07:10:11;;;;;;;63.70;27.90;;;;;;;4.56;94.92;100462.11;99663;1293;139502;-73
2022/12/25 07:12:39;;;;;;;63.00;27.50;;;;;;;4.55;95.10;100468.49;99778;1291;97739;-73
2022/12/25 07:15:07;;;;;;;65.20;28.20;;;;;;;4.55;95.06;100472.11;99706;1292;107583;-73
2022/12/25 07:17:35;;;;;;;60.10;26.50;;;;;;;4.57;95.34;100475.89;100238;1294;97867;-73
2022/12/25 07:20:03;;;;;;;57.70;25.50;;;;;;;4.58;95.39;100476.05;99791;1293;110205;-72
2022/12/25 07:22:31;;;;;;;58.60;25.90;;;;;;;4.58;95.15;100473.98;99663;1293;138385;-73
2022/12/25 07:24:58;;;;;;;60.90;27.00;;;;;;;4.59;95.36;100476.91;99806;1299;97852;-73
2022/12/25 07:27:25;;;;;;;62.10;27.50;;;;;;;4.64;95.56;100479.80;99626;1294;138612;-72
2022/12/25 07:29:52;;;;;;;57.90;26.60;;;;;;;4.69;95.47;100487.04;99761;1289;97803;-73
2022/12/25 07:32:19;;;;;;;62.20;26.60;;;;;;;4.73;95.46;100489.94;99799;1299;110929;-74
2022/12/25 07:34:47;;;;;;;57.30;25.30;;;;;;;4.76;95.31;100492.00;99672;1293;140028;-74
2022/12/25 07:37:14;;;;;;;57.80;26.40;;;;;;;4.76;95.00;100491.65;99780;1290;98394;-74
2022/12/25 07:39:41;;;;;;;60.30;26.10;;;;;;;4.76;95.02;100500.60;99731;1292;138383;-73
2022/12/25 07:42:08;;;;;;;56.20;26.60;;;;;;;4.76;94.96;100498.20;99781;1299;97894;-74
2022/12/25 07:44:36;;;;;;;58.70;26.20;;;;;;;4.75;94.70;100501.48;99787;1295;111498;-74
2022/12/25 07:47:04;;;;;;;58.70;27.20;;;;;;;4.77;94.98;100501.11;99651;1293;138627;-74
2022/12/25 07:49:31;;;;;;;55.70;25.20;;;;;;;4.80;94.88;100505.58;99759;1299;98372;-74
2022/12/25 07:51:58;;;;;;;57.60;25.60;;;;;;;4.79;94.81;100516.09;99616;1291;138292;-74
2022/12/25 07:54:25;;;;;;;57.90;25.80;;;;;;;4.81;94.90;100524.69;99763;1285;97877;-74
2022/12/25 07:56:53;;;;;;;52.10;25.10;;;;;;;4.84;94.76;100531.23;99751;1285;111530;-72
2022/12/25 07:59:21;;;;;;;53.70;25.70;;;;;;;4.88;94.57;100530.89;99576;1293;138503;-76
2022/12/25 08:01:50;;;;;;;52.70;24.80;;;;;;;4.90;94.44;100528.46;99592;1287;98403;-73
2022/12/25 08:04:18;;;;;;;51.90;25.10;;;;;;;4.92;94.53;100530.17;99514;1289;138256;-73
2022/12/25 08:06:45;;;;;;;50.20;24.80;;;;;;;4.95;94.47;100534.45;99695;1293;97813;-71
2022/12/25 08:09:13;;;;;;;52.80;24.30;;;;;;;4.96;94.43;100536.00;99580;1291;138612;-70
2022/12/25 08:11:44;;;;;;;52.70;24.60;;;;;;;4.99;94.30;100541.50;100909;1292;108493;-72
2022/12/25 08:14:11;;;;;;;47.10;22.70;;;;;;;5.00;94.23;100545.46;101224;1286;96015;-72
2022/12/25 08:16:40;;;;;;;43.50;22.00;;;;;;;5.01;93.89;100546.14;101093;1293;138889;-72
2022/12/25 08:19:07;;;;;;;47.80;23.10;;;;;;;5.04;94.08;100548.90;100761;1300;97846;-72
2022/12/25 08:21:34;;;;;;;45.00;23.20;;;;;;;5.06;93.98;100550.45;99638;1289;139387;-72
2022/12/25 08:24:02;;;;;;;43.60;22.00;;;;;;;5.06;93.82;100554.06;99720;1293;107965;-71
2022/12/25 08:26:29;;;;;;;45.70;23.30;;;;;;;5.06;93.63;100556.14;99771;1285;100096;-72
2022/12/25 08:28:56;;;;;;;42.10;21.90;;;;;;;5.04;93.25;100556.14;99604;1293;140051;-74
2022/12/25 08:31:25;;;;;;;41.30;20.70;;;;;;;5.04;93.28;100559.08;99549;1290;97831;-74
2022/12/25 08:33:55;;;;;;;40.50;21.30;;;;;;;5.04;93.27;100557.70;100720;1286;138214;-74
2022/12/25 08:36:23;;;;;;;41.20;21.90;;;;;;;5.04;93.35;100562.70;99791;1287;107685;-72
2022/12/25 08:38:50;;;;;;;42.20;21.50;;;;;;;5.05;93.42;100571.65;99773;1287;98324;-71
2022/12/25 08:41:24;;;;;;;40.80;21.90;;;;;;;5.08;93.78;100574.23;99730;1285;138846;-72
2022/12/25 08:43:51;;;;;;;43.30;22.00;;;;;;;5.11;93.71;100581.96;99833;1293;97932;-71
2022/12/25 08:46:18;;;;;;;42.80;22.30;;;;;;;5.12;93.61;100588.15;99787;1298;140015;-72
2022/12/25 08:48:47;;;;;;;41.20;20.90;;;;;;;5.10;93.25;100589.02;99921;1293;110297;-73
2022/12/25 08:51:16;;;;;;;40.60;22.40;;;;;;;5.11;93.47;100591.95;99787;1291;138542;-72
2022/12/25 08:53:43;;;;;;;42.60;21.20;;;;;;;5.12;93.32;100594.53;99889;1290;107472;-71
2022/12/25 08:56:10;;;;;;;47.60;23.00;;;;;;;5.09;93.10;100599.02;99877;1293;97858;-72
2022/12/25 08:58:37;;;;;;;40.30;22.50;;;;;;;5.09;93.13;100596.96;99720;1292;138634;-71
2022/12/25 09:01:05;;;;;;;43.40;22.60;;;;;;;5.08;93.19;100598.52;99863;1292;107066;-72
2022/12/25 09:03:33;;;;;;;45.30;22.90;;;;;;;5.09;93.38;100597.48;99806;1293;138488;-72
2022/12/25 09:06:04;;;;;;;43.70;22.90;;;;;;;5.10;93.04;100600.40;99762;1288;108018;-72
2022/12/25 09:08:31;;;;;;;47.50;23.30;;;;;;;5.09;93.19;100605.23;99802;1294;97849;-72
2022/12/25 09:11:01;;;;;;;45.90;23.10;;;;;;;5.11;93.21;100606.95;99709;1293;139102;-72
2022/12/25 09:13:28;;;;;;;44.50;21.90;;;;;;;5.10;93.36;100610.92;99835;1293;109199;-72
2022/12/25 09:15:55;;;;;;;44.30;22.70;;;;;;;5.11;93.31;100609.88;99663;1293;138683;-72
2022/12/25 09:18:22;;;;;;;41.50;21.70;;;;;;;5.10;93.21;100609.38;99836;1292;111094;-72
2022/12/25 09:20:59;;;;;;;37.40;20.90;;;;;;;5.11;93.24;100610.05;99838;1295;99103;-72
2022/12/25 09:23:27;;;;;;;41.20;21.20;;;;;;;5.12;93.23;100611.94;99750;1294;138080;-72
2022/12/25 09:25:55;;;;;;;42.00;21.60;;;;;;;5.14;93.19;100610.72;99894;1290;106054;-72
2022/12/25 09:28:22;;;;;;;36.50;20.10;;;;;;;5.17;93.29;100615.86;99786;1292;138339;-72
2022/12/25 09:30:51;;;;;;;39.70;21.00;;;;;;;5.21;93.18;100613.98;99887;1292;107498;-72
2022/12/25 09:33:19;;;;;;;35.60;20.00;;;;;;;5.24;93.15;100617.59;99706;1292;138653;-72
2022/12/25 09:35:52;;;;;;;38.40;20.80;;;;;;;5.28;93.01;100619.98;99814;1293;110077;-71
2022/12/25 09:38:20;;;;;;;37.90;19.20;;;;;;;5.32;92.61;100613.92;99858;1293;108217;-72
2022/12/25 09:40:48;;;;;;;37.90;19.70;;;;;;;5.36;92.93;100611.81;99755;1293;139628;-71
2022/12/25 09:43:20;;;;;;;35.80;19.30;;;;;;;5.42;92.75;100605.43;99871;1293;107326;-72
2022/12/25 09:45:47;;;;;;;38.90;19.20;;;;;;;5.45;92.41;100602.47;99821;1293;138799;-72
2022/12/25 09:48:16;;;;;;;34.10;18.00;;;;;;;5.50;92.46;100608.47;99810;1289;111919;-72
2022/12/25 09:50:50;;;;;;;36.30;19.20;;;;;;;5.58;92.48;100605.68;99855;1293;108186;-71
2022/12/25 09:53:22;;;;;;;33.10;18.30;;;;;;;5.61;92.16;100610.84;99704;1293;138905;-71
2022/12/25 09:55:53;;;;;;;38.00;19.60;;;;;;;5.64;91.91;100614.43;99818;1293;107990;-71
2022/12/25 09:58:21;;;;;;;34.70;18.80;;;;;;;5.65;91.57;100613.90;100230;1295;138296;-71
2022/12/25 10:00:53;;;;;;;37.60;20.30;;;;;;;5.67;91.39;100614.41;99828;1293;111030;-71
2022/12/25 10:03:33;;;;;;;37.50;20.60;;;;;;;5.69;91.29;100613.70;99717;1293;140972;-71
2022/12/25 10:06:16;;;;;;;36.00;19.60;;;;;;;5.70;91.08;100603.52;99805;1293;100328;-72
2022/12/25 10:09:11;;;;;;;43.40;20.80;;;;;;;5.75;91.26;100603.69;99841;1300;108108;-71
2022/12/25 10:11:52;;;;;;;39.20;21.60;;;;;;;5.78;91.12;100602.95;99763;1299;97834;-72
2022/12/25 10:14:30;;;;;;;39.00;20.10;;;;;;;5.81;91.33;100601.73;99877;1293;112002;-72
2022/12/25 10:17:11;;;;;;;32.40;18.60;;;;;;;5.85;91.28;100600.14;99768;1293;138509;-71
2022/12/25 10:19:46;;;;;;;33.80;19.40;;;;;;;5.87;90.88;100605.13;100871;1293;97120;-71
2022/12/25 10:22:18;;;;;;;34.20;19.20;;;;;;;5.87;90.55;100607.54;99763;1287;138764;-71
2022/12/25 10:24:51;;;;;;;36.00;18.90;;;;;;;5.88;90.69;100606.51;99877;1292;98117;-71
2022/12/25 10:27:24;;;;;;;34.70;19.60;;;;;;;5.91;90.43;100612.19;99707;1298;138471;-72
2022/12/25 10:29:54;;;;;;;34.30;19.00;;;;;;;5.91;90.40;100611.51;99804;1300;108895;-72
2022/12/25 10:32:22;;;;;;;34.80;18.40;;;;;;;5.90;90.45;100611.33;99845;1299;99419;-72
2022/12/25 10:34:50;;;;;;;28.50;16.60;;;;;;;5.90;90.17;100608.74;99702;1293;138303;-72
2022/12/25 10:37:17;;;;;;;33.10;16.90;;;;;;;5.88;89.95;100609.61;99837;1293;98592;-72
2022/12/25 10:39:45;;;;;;;32.20;17.90;;;;;;;5.86;89.79;100609.97;99758;1297;138318;-72
2022/12/25 10:42:39;;;;;;;31.90;17.60;;;;;;;5.87;89.95;100610.47;99661;1280;108187;-72
2022/12/25 10:45:09;;;;;;;31.50;18.30;;;;;;;5.87;90.00;100615.65;99830;1293;99462;-71
2022/12/25 10:47:42;;;;;;;26.40;15.70;;;;;;;5.88;90.03;100620.83;100283;1296;107973;-71
2022/12/25 10:50:24;;;;;;;30.30;17.30;;;;;;;5.90;89.91;100627.39;99751;1285;97804;-71
2022/12/25 10:53:03;;;;;;;31.70;17.50;;;;;;;5.90;89.69;100626.70;99622;1296;138070;-72
2022/12/25 10:55:30;;;;;;;29.00;16.20;;;;;;;5.88;89.57;100620.64;99739;1300;107272;-72
2022/12/25 10:57:58;;;;;;;32.00;17.40;;;;;;;5.87;89.52;100623.41;99708;1293;138434;-71
2022/12/25 11:00:28;;;;;;;30.90;17.00;;;;;;;5.86;89.42;100619.29;99783;1293;107768;-72
2022/12/25 11:02:55;;;;;;;33.80;17.60;;;;;;;5.85;89.47;100622.58;99982;1286;97898;-72
2022/12/25 11:05:29;;;;;;;34.40;18.30;;;;;;;5.83;89.29;100620.17;99743;1293;138087;-72
2022/12/25 11:07:58;;;;;;;32.70;18.20;;;;;;;5.83;89.31;100615.52;99791;1287;106760;-72
2022/12/25 11:10:30;;;;;;;37.10;21.50;;;;;;;5.80;89.10;100612.09;99722;1294;138272;-72
2022/12/25 11:12:58;;;;;;;30.80;17.70;;;;;;;5.81;89.35;100609.33;99873;1294;107543;-72
2022/12/25 11:15:40;;;;;;;31.40;17.70;;;;;;;5.83;89.39;100609.48;99705;1287;138685;-71
2022/12/25 11:18:20;;;;;;;30.30;17.00;;;;;;;5.84;89.22;100607.23;99807;1287;110991;-71
2022/12/25 11:20:52;;;;;;;30.80;17.50;;;;;;;5.84;89.12;100608.09;100006;1294;107246;-71
2022/12/25 11:23:21;;;;;;;33.60;17.70;;;;;;;5.85;89.10;100603.25;99734;1290;138371;-71
2022/12/25 11:25:58;;;;;;;32.80;18.00;;;;;;;5.84;89.06;100600.33;99816;1293;108039;-71
2022/12/25 11:28:26;;;;;;;33.20;18.20;;;;;;;5.85;88.96;100596.69;99688;1293;138571;-71
2022/12/25 11:30:59;;;;;;;32.90;19.40;;;;;;;5.84;88.88;100594.97;99850;1291;110666;-71
2022/12/25 11:33:31;;;;;;;29.70;16.60;;;;;;;5.84;89.11;100598.42;99699;1295;140383;-70
2022/12/25 11:36:02;;;;;;;32.50;17.30;;;;;;;5.85;88.95;100602.90;99898;1300;97735;-71
2022/12/25 11:38:30;;;;;;;28.00;16.30;;;;;;;5.85;88.77;100598.59;99887;1300;107374;-71
2022/12/25 11:41:02;;;;;;;32.10;17.30;;;;;;;5.83;88.59;100592.39;99587;1290;138684;-71
2022/12/25 11:43:35;;;;;;;34.40;17.20;;;;;;;5.84;88.80;100595.14;99903;1293;111123;-71
2022/12/25 11:46:12;;;;;;;29.50;16.60;;;;;;;5.84;88.72;100591.17;99968;1286;138480;-71
2022/12/25 11:48:44;;;;;;;29.90;16.80;;;;;;;5.85;88.69;100597.90;99840;1293;97828;-71
2022/12/25 11:51:14;;;;;;;29.20;17.20;;;;;;;5.85;88.55;100604.29;99739;1299;107311;-71
2022/12/25 11:53:48;;;;;;;30.10;17.20;;;;;;;5.84;88.55;100606.53;99833;1297;97803;-71
2022/12/25 11:56:18;;;;;;;29.60;16.60;;;;;;;5.83;88.65;100609.47;99681;1287;110608;-71
2022/12/25 11:58:49;;;;;;;28.90;17.10;;;;;;;5.85;88.79;100613.09;99539;1298;138348;-70
2022/12/25 12:01:28;;;;;;;32.10;17.50;;;;;;;5.87;88.53;100619.11;99774;1295;98419;-71
2022/12/25 12:03:57;;;;;;;31.40;17.70;;;;;;;5.86;88.67;100618.42;99695;1292;138454;-71
2022/12/25 12:06:32;;;;;;;30.50;18.10;;;;;;;5.87;88.63;100614.27;99753;1298;97719;-71
2022/12/25 12:09:11;;;;;;;35.50;18.50;;;;;;;5.88;88.61;100615.99;99850;1286;110073;-71
2022/12/25 12:11:46;;;;;;;33.90;17.90;;;;;;;5.88;88.62;100614.95;99778;1293;107464;-71
2022/12/25 12:14:30;;;;;;;32.20;17.60;;;;;;;5.87;88.61;100617.20;99869;1293;98352;-71
2022/12/25 12:16:57;;;;;;;36.20;18.70;;;;;;;5.88;88.71;100622.71;99749;1297;138696;-71
2022/12/25 12:19:29;;;;;;;35.20;19.40;;;;;;;5.89;88.70;100622.02;99847;1294;98050;-71
2022/12/25 12:22:00;;;;;;;44.00;25.40;;;;;;;5.89;88.67;100624.10;100086;1292;139379;-71
2022/12/25 12:24:33;;;;;;;45.30;24.60;;;;;;;5.89;88.60;100630.14;99783;1292;108818;-71
2022/12/25 12:27:06;;;;;;;37.20;20.20;;;;;;;5.88;88.56;100632.39;100152;1293;98761;-71
2022/12/25 12:29:39;;;;;;;40.50;21.10;;;;;;;5.86;88.49;100635.50;100037;1293;138210;-71
2022/12/25 12:32:24;;;;;;;33.80;18.70;;;;;;;5.86;88.63;100631.37;99843;1287;97927;-72
2022/12/25 12:34:52;;;;;;;38.30;20.20;;;;;;;5.86;88.44;100639.48;99741;1294;138128;-71
2022/12/25 12:37:25;;;;;;;39.10;21.20;;;;;;;5.84;88.28;100637.77;99810;1287;107641;-71
2022/12/25 12:39:55;;;;;;;42.00;21.20;;;;;;;5.81;88.05;100634.52;99667;1291;138457;-71
2022/12/25 12:42:26;;;;;;;40.00;21.10;;;;;;;5.80;88.26;100625.55;99932;1293;107766;-71
2022/12/25 12:44:54;;;;;;;39.50;20.70;;;;;;;5.81;88.52;100625.89;99831;1290;97739;-71
2022/12/25 12:47:38;;;;;;;38.70;20.70;;;;;;;5.81;88.54;100621.23;99740;1287;139207;-72
2022/12/25 12:50:08;;;;;;;36.50;20.70;;;;;;;5.81;88.49;100615.88;99813;1293;107279;-70
2022/12/25 12:52:39;;;;;;;36.80;20.30;;;;;;;5.82;88.58;100620.17;99747;1294;138869;-71
2022/12/25 12:55:11;;;;;;;42.90;21.40;;;;;;;5.82;88.71;100617.95;99818;1293;108108;-71
2022/12/25 12:57:39;;;;;;;40.90;21.50;;;;;;;5.82;88.48;100618.80;99706;1293;138381;-71
2022/12/25 13:00:14;;;;;;;39.60;20.40;;;;;;;5.80;88.33;100619.68;99798;1287;111535;-71
2022/12/25 13:03:04;;;;;;;40.10;20.70;;;;;;;5.76;88.35;100619.19;99837;1300;107503;-71
2022/12/25 13:05:40;;;;;;;36.90;20.70;;;;;;;5.76;88.37;100619.02;99696;1292;138469;-71
2022/12/25 13:08:20;;;;;;;40.20;21.60;;;;;;;5.74;88.36;100615.06;99693;1290;1002817;-71
2022/12/25 13:10:50;;;;;;;39.90;21.60;;;;;;;5.71;88.25;100610.58;99681;1285;138517;-72
2022/12/25 13:13:23;;;;;;;43.70;22.20;;;;;;;5.66;88.24;100607.00;99801;1292;110662;-72
2022/12/25 13:15:52;;;;;;;44.50;22.20;;;;;;;5.63;88.50;100602.89;99732;1299;139554;-71
2022/12/25 13:18:20;;;;;;;42.40;22.90;;;;;;;5.61;88.38;100603.95;99808;1293;97815;-71
2022/12/25 13:20:53;;;;;;;48.20;22.70;;;;;;;5.60;88.56;100609.30;99854;1297;107296;-71
2022/12/25 13:23:29;;;;;;;54.10;23.00;;;;;;;5.59;88.90;100617.40;99707;1300;138387;-71
2022/12/25 13:25:58;;;;;;;45.80;21.60;;;;;;;5.58;88.82;100623.62;99818;1294;111202;-71
2022/12/25 13:28:30;;;;;;;43.00;21.50;;;;;;;5.55;88.69;100632.59;99666;1292;139345;-72
2022/12/25 13:31:06;;;;;;;42.60;21.20;;;;;;;5.54;88.81;100640.52;99812;1293;98225;-71
2022/12/25 13:33:34;;;;;;;42.80;22.10;;;;;;;5.48;88.56;100637.80;99627;1287;138617;-71
2022/12/25 13:36:01;;;;;;;45.40;22.70;;;;;;;5.44;88.65;100637.49;99632;1285;98111;-71
2022/12/25 13:38:29;;;;;;;46.20;22.50;;;;;;;5.43;88.73;100634.91;99734;1285;111689;-71
2022/12/25 13:43:45;;;;;;;42.80;21.90;;;;;;;5.36;88.97;100637.86;99792;1293;98483;-70
2022/12/25 13:46:15;;;;;;;47.60;23.10;;;;;;;5.32;89.09;100639.43;99744;1286;138696;-72
2022/12/25 13:48:43;;;;;;;46.40;22.80;;;;;;;5.31;89.31;100644.27;99942;1290;97809;-71
2022/12/25 13:51:16;;;;;;;45.10;23.40;;;;;;;5.28;89.22;100643.42;99889;1291;111756;-72
2022/12/25 13:53:44;;;;;;;53.90;24.90;;;;;;;5.25;89.58;100644.65;99954;1293;108926;-70
2022/12/25 13:56:15;;;;;;;56.90;25.00;;;;;;;5.23;89.50;100647.41;99987;1292;97919;-71
2022/12/25 13:58:43;;;;;;;63.20;25.50;;;;;;;5.21;89.88;100653.62;101079;1297;138123;-71
2022/12/25 14:01:15;;;;;;;60.80;25.80;;;;;;;5.15;89.76;100655.36;99879;1293;97872;-67
2022/12/25 14:03:45;;;;;;;61.60;27.00;;;;;;;5.11;89.78;100658.66;99638;1285;138294;-68
2022/12/25 14:06:20;;;;;;;58.00;26.20;;;;;;;5.08;89.97;100655.57;99483;1286;109017;-68
2022/12/25 14:08:48;;;;;;;63.80;27.50;;;;;;;5.04;90.32;100658.00;99781;1292;97851;-67
2022/12/25 14:11:19;;;;;;;60.00;26.10;;;;;;;5.02;90.38;100661.27;100531;1285;139762;-67
2022/12/25 14:13:48;;;;;;;60.20;26.10;;;;;;;4.99;90.36;100662.98;99964;1290;97822;-66
2022/12/25 14:16:18;;;;;;;58.80;26.40;;;;;;;4.98;90.48;100666.61;99891;1285;138223;-66
2022/12/25 14:18:54;;;;;;;53.20;25.10;;;;;;;4.97;90.69;100673.69;99870;1276;107525;-67
2022/12/25 14:21:28;;;;;;;60.40;27.30;;;;;;;4.97;90.89;100678.67;100063;1293;139937;-66
2022/12/25 14:23:56;;;;;;;60.00;27.00;;;;;;;4.95;91.05;100675.24;101194;1289;107257;-67
2022/12/25 14:26:26;;;;;;;61.00;27.30;;;;;;;4.94;90.87;100669.22;99898;1287;97825;-66
2022/12/25 14:28:57;;;;;;;63.30;26.70;;;;;;;4.93;91.18;100669.05;100057;1300;138148;-67
2022/12/25 14:31:28;;;;;;;62.40;26.90;;;;;;;4.92;91.29;100668.19;100520;1301;1002365;-66
2022/12/25 14:33:58;;;;;;;65.20;28.60;;;;;;;4.92;91.41;100666.13;100197;1292;139120;-66
2022/12/25 14:36:26;;;;;;;65.30;29.20;;;;;;;4.91;91.30;100669.40;99838;1293;108197;-66
2022/12/25 14:39:00;;;;;;;63.50;28.80;;;;;;;4.90;91.56;100673.55;99855;1287;97859;-68
2022/12/25 14:41:36;;;;;;;61.80;28.50;;;;;;;4.89;91.54;100673.02;101175;1301;138340;-67
2022/12/25 14:44:20;;;;;;;65.70;30.20;;;;;;;4.88;91.72;100668.55;100771;1284;107570;-68
2022/12/25 14:46:48;;;;;;;67.40;30.50;;;;;;;4.89;91.71;100668.38;100147;1299;138670;-67
2022/12/25 14:49:26;;;;;;;66.50;29.70;;;;;;;4.90;91.77;100667.17;99808;1289;108071;-64
2022/12/25 14:51:55;;;;;;;68.60;30.00;;;;;;;4.91;91.99;100670.95;101127;1294;139470;-66
2022/12/25 14:54:24;;;;;;;67.40;31.40;;;;;;;4.92;92.15;100674.74;101310;1292;111581;-67
2022/12/25 14:56:54;;;;;;;70.80;31.70;;;;;;;4.93;92.14;100676.45;101196;1299;108804;-67
2022/12/25 14:59:25;;;;;;;64.00;28.40;;;;;;;4.95;92.25;100676.96;101113;1301;138994;-66
2022/12/25 15:01:55;;;;;;;69.10;29.40;;;;;;;4.97;92.12;100678.16;101204;1300;107517;-66
2022/12/25 15:04:24;;;;;;;62.70;28.60;;;;;;;4.98;92.20;100679.02;101130;1293;139321;-68
2022/12/25 15:06:56;;;;;;;64.30;29.20;;;;;;;4.98;92.27;100678.85;101213;1300;111130;-68
2022/12/25 15:09:23;;;;;;;68.20;28.50;;;;;;;4.99;92.31;100681.95;101070;1292;138806;-66
2022/12/25 15:11:52;;;;;;;63.10;28.60;;;;;;;4.98;92.25;100685.91;101304;1293;96008;-67
2022/12/25 15:14:19;;;;;;;62.60;28.70;;;;;;;4.98;92.26;100686.95;101277;1299;106959;-67
2022/12/25 15:16:49;;;;;;;69.00;28.70;;;;;;;4.97;92.45;100689.02;101125;1299;138693;-67
2022/12/25 15:19:20;;;;;;;64.60;27.50;;;;;;;5.00;92.34;100684.36;101265;1294;111257;-67
2022/12/25 15:21:52;;;;;;;73.70;30.40;;;;;;;5.01;92.60;100684.17;101055;1292;138697;-66
2022/12/25 15:24:20;;;;;;;64.60;29.70;;;;;;;5.03;92.52;100683.16;99883;1277;97783;-66
2022/12/25 15:26:48;;;;;;;64.60;29.70;;;;;;;5.04;92.51;100682.13;99866;1287;107925;-66
2022/12/25 15:29:15;;;;;;;64.70;28.50;;;;;;;5.06;92.46;100676.27;100556;1284;258685;-67
2022/12/25 15:32:03;;;;;;;64.90;30.10;;;;;;;5.07;92.52;100674.71;100645;1297;110490;-67
2022/12/25 15:34:30;;;;;;;63.50;28.60;;;;;;;5.07;92.72;100679.19;99824;1285;138486;-66
2022/12/25 15:36:57;;;;;;;61.60;28.80;;;;;;;5.07;92.59;100676.60;100079;1284;98553;-66
2022/12/25 15:39:24;;;;;;;70.30;30.30;;;;;;;5.08;92.62;100684.70;99934;1292;138603;-66
2022/12/25 15:44:36;;;;;;;64.20;28.10;;;;;;;5.07;92.75;100689.52;100381;1287;111615;-66
2022/12/25 15:47:03;;;;;;;61.70;27.00;;;;;;;5.09;92.74;100689.70;100254;1293;138759;-67
2022/12/25 15:49:30;;;;;;;60.10;27.00;;;;;;;5.09;92.72;100693.31;100031;1293;98292;-67
2022/12/25 15:51:58;;;;;;;61.80;27.60;;;;;;;5.09;92.85;100696.07;100231;1294;139236;-68